createdAt,value
2023-01-27T00:00:51.436Z,0
2023-01-27T00:01:51.448Z,0
2023-01-27T00:02:51.421Z,0
2023-01-27T00:03:51.411Z,0
2023-01-27T00:04:51.400Z,0
2023-01-27T00:05:51.394Z,0
2023-01-27T00:06:51.385Z,0
2023-01-27T00:07:51.374Z,0
2023-01-27T00:08:51.375Z,0
2023-01-27T00:09:51.378Z,0
2023-01-27T00:10:51.349Z,0
2023-01-27T00:11:51.344Z,0
2023-01-27T00:12:51.323Z,0
2023-01-27T00:13:51.311Z,0
2023-01-27T00:14:51.312Z,0
2023-01-27T00:15:51.294Z,0
2023-01-27T00:16:51.281Z,0
2023-01-27T00:17:51.275Z,0
2023-01-27T00:18:51.261Z,0
2023-01-27T00:19:51.251Z,0
2023-01-27T00:20:51.255Z,0
2023-01-27T00:21:51.243Z,0
2023-01-27T00:22:51.225Z,0
2023-01-27T00:23:51.209Z,0
2023-01-27T00:24:51.199Z,0
2023-01-27T00:25:51.197Z,0
2023-01-27T00:26:51.179Z,0
2023-01-27T00:27:51.184Z,0
2023-01-27T00:28:51.161Z,0
2023-01-27T00:29:51.148Z,0
2023-01-27T00:30:51.145Z,0
2023-01-27T00:31:51.127Z,0
2023-01-27T00:32:51.125Z,0
2023-01-27T00:33:51.105Z,0
2023-01-27T00:34:51.122Z,0
2023-01-27T00:35:51.087Z,0
2023-01-27T00:36:51.089Z,0
2023-01-27T00:37:51.079Z,0
2023-01-27T00:38:51.080Z,0
2023-01-27T00:39:51.045Z,0
2023-01-27T00:40:51.042Z,0
2023-01-27T00:41:51.026Z,0
2023-01-27T00:42:51.032Z,0
2023-01-27T00:43:51.005Z,0
2023-01-27T00:44:50.992Z,0
2023-01-27T00:45:50.993Z,0
2023-01-27T00:46:50.978Z,0
2023-01-27T00:47:50.986Z,0
2023-01-27T00:48:50.959Z,0
2023-01-27T00:49:50.967Z,0
2023-01-27T00:50:50.937Z,0
2023-01-27T00:51:50.940Z,0
2023-01-27T00:52:50.915Z,0
2023-01-27T00:53:50.908Z,0
2023-01-27T00:54:50.899Z,0
2023-01-27T00:55:50.886Z,0
2023-01-27T00:56:50.878Z,0
2023-01-27T00:57:50.865Z,0
2023-01-27T00:58:50.855Z,0
2023-01-27T00:59:50.842Z,0
2023-01-27T01:00:50.841Z,0
2023-01-27T01:01:50.839Z,0
2023-01-27T01:02:50.866Z,0
2023-01-27T01:03:50.808Z,0
2023-01-27T01:04:50.832Z,0
2023-01-27T01:05:50.786Z,0
2023-01-27T01:06:50.775Z,0
2023-01-27T01:07:50.762Z,0
2023-01-27T01:08:50.763Z,0
2023-01-27T01:09:50.738Z,0
2023-01-27T01:10:50.734Z,0
2023-01-27T01:11:50.723Z,0
2023-01-27T01:12:50.728Z,0
2023-01-27T01:13:50.700Z,0
2023-01-27T01:14:50.694Z,0
2023-01-27T01:15:50.677Z,0
2023-01-27T01:16:50.672Z,0
2023-01-27T01:17:50.669Z,0
2023-01-27T01:18:50.647Z,0
2023-01-27T01:19:50.647Z,0
2023-01-27T01:20:50.630Z,0
2023-01-27T01:21:50.618Z,0
2023-01-27T01:22:50.607Z,0
2023-01-27T01:23:50.599Z,0
2023-01-27T01:24:50.594Z,0
2023-01-27T01:25:50.588Z,0
2023-01-27T01:26:50.575Z,0
2023-01-27T01:27:50.558Z,0
2023-01-27T01:28:50.579Z,0
2023-01-27T01:29:50.536Z,0
2023-01-27T01:30:50.524Z,0
2023-01-27T01:31:50.522Z,0
2023-01-27T01:32:50.522Z,0
2023-01-27T01:33:50.498Z,0
2023-01-27T01:34:50.485Z,0
2023-01-27T01:35:50.483Z,0
2023-01-27T01:36:50.469Z,0
2023-01-27T01:37:50.459Z,0
2023-01-27T01:38:50.445Z,0
2023-01-27T01:39:50.456Z,0
2023-01-27T01:40:50.421Z,0
2023-01-27T01:41:50.418Z,0
2023-01-27T01:42:50.407Z,0
2023-01-27T01:43:50.394Z,0
2023-01-27T01:44:50.385Z,0
2023-01-27T01:45:50.383Z,0
2023-01-27T01:46:50.367Z,0
2023-01-27T01:47:50.356Z,0
2023-01-27T01:48:50.346Z,0
2023-01-27T01:49:50.333Z,0
2023-01-27T01:50:50.327Z,0
2023-01-27T01:51:50.327Z,0
2023-01-27T01:52:50.311Z,0
2023-01-27T01:53:50.295Z,0
2023-01-27T01:54:50.282Z,0
2023-01-27T01:55:50.273Z,0
2023-01-27T01:56:50.266Z,0
2023-01-27T01:57:50.259Z,0
2023-01-27T01:58:50.264Z,0
2023-01-27T01:59:50.237Z,0
2023-01-27T02:00:50.227Z,0
2023-01-27T02:01:50.223Z,0
2023-01-27T02:02:50.201Z,0
2023-01-27T02:03:50.205Z,0
2023-01-27T02:04:50.189Z,0
2023-01-27T02:05:50.176Z,0
2023-01-27T02:06:50.165Z,0
2023-01-27T02:07:50.150Z,0
2023-01-27T02:08:50.142Z,0
2023-01-27T02:09:50.198Z,0
2023-01-27T02:10:50.122Z,0
2023-01-27T02:11:50.124Z,0
2023-01-27T02:12:50.101Z,0
2023-01-27T02:13:50.145Z,0
2023-01-27T02:14:50.083Z,0
2023-01-27T02:15:50.071Z,0
2023-01-27T02:16:50.096Z,0
2023-01-27T02:17:50.062Z,0
2023-01-27T02:18:50.037Z,0
2023-01-27T02:19:50.030Z,0
2023-01-27T02:20:50.044Z,0
2023-01-27T02:21:50.010Z,0
2023-01-27T02:22:49.995Z,0
2023-01-27T02:23:49.989Z,0
2023-01-27T02:24:49.986Z,0
2023-01-27T02:25:49.966Z,0
2023-01-27T02:26:49.953Z,0
2023-01-27T02:27:49.941Z,0
2023-01-27T02:28:49.937Z,0
2023-01-27T02:29:49.922Z,0
2023-01-27T02:30:49.923Z,0
2023-01-27T02:31:49.903Z,0
2023-01-27T02:32:49.893Z,0
2023-01-27T02:33:49.883Z,0
2023-01-27T02:34:49.874Z,0
2023-01-27T02:35:49.873Z,0
2023-01-27T02:36:49.849Z,0
2023-01-27T02:37:49.841Z,0
2023-01-27T02:38:49.834Z,0
2023-01-27T02:39:49.827Z,0
2023-01-27T02:40:49.828Z,0
2023-01-27T02:41:49.816Z,0
2023-01-27T02:42:49.785Z,0
2023-01-27T02:43:49.779Z,0
2023-01-27T02:44:49.776Z,0
2023-01-27T02:45:49.758Z,0
2023-01-27T02:46:49.745Z,0
2023-01-27T02:47:49.745Z,0
2023-01-27T02:48:49.726Z,0
2023-01-27T02:49:49.716Z,0
2023-01-27T02:50:49.720Z,0
2023-01-27T02:51:49.695Z,0
2023-01-27T02:52:49.686Z,0
2023-01-27T02:53:49.676Z,0
2023-01-27T02:54:49.679Z,0
2023-01-27T02:55:49.653Z,0
2023-01-27T02:56:49.646Z,0
2023-01-27T02:57:49.661Z,0
2023-01-27T02:58:49.622Z,0
2023-01-27T02:59:49.613Z,0
2023-01-27T03:00:49.601Z,0
2023-01-27T03:01:49.595Z,0
2023-01-27T03:02:49.580Z,0
2023-01-27T03:03:49.584Z,0
2023-01-27T03:04:49.620Z,0
2023-01-27T03:05:49.548Z,0
2023-01-27T03:06:49.542Z,0
2023-01-27T03:07:49.543Z,0
2023-01-27T03:08:49.521Z,0
2023-01-27T03:09:49.508Z,0
2023-01-27T03:10:49.517Z,0
2023-01-27T03:11:49.490Z,0
2023-01-27T03:12:49.485Z,0
2023-01-27T03:13:49.467Z,0
2023-01-27T03:14:49.470Z,0
2023-01-27T03:15:49.454Z,0
2023-01-27T03:16:49.443Z,0
2023-01-27T03:17:49.436Z,0
2023-01-27T03:18:49.417Z,0
2023-01-27T03:19:49.413Z,0
2023-01-27T03:20:49.454Z,0
2023-01-27T03:21:49.405Z,0
2023-01-27T03:22:49.383Z,0
2023-01-27T03:23:49.372Z,0
2023-01-27T03:24:49.358Z,0
2023-01-27T03:25:49.353Z,0
2023-01-27T03:26:49.347Z,0
2023-01-27T03:27:49.326Z,0
2023-01-27T03:28:49.315Z,0
2023-01-27T03:29:49.301Z,0
2023-01-27T03:30:49.295Z,0
2023-01-27T03:31:49.304Z,0
2023-01-27T03:32:49.271Z,0
2023-01-27T03:33:49.271Z,0
2023-01-27T03:34:49.257Z,0
2023-01-27T03:35:49.242Z,0
2023-01-27T03:36:49.243Z,0
2023-01-27T03:37:49.220Z,0
2023-01-27T03:38:49.198Z,0
2023-01-27T03:39:49.204Z,0
2023-01-27T03:40:49.186Z,0
2023-01-27T03:41:49.166Z,0
2023-01-27T03:42:49.159Z,0
2023-01-27T03:43:49.156Z,0
2023-01-27T03:44:49.133Z,0
2023-01-27T03:45:49.128Z,0
2023-01-27T03:46:49.125Z,0
2023-01-27T03:47:49.109Z,0
2023-01-27T03:48:49.094Z,0
2023-01-27T03:49:49.105Z,0
2023-01-27T03:50:49.077Z,0
2023-01-27T03:51:49.060Z,0
2023-01-27T03:52:49.052Z,0
2023-01-27T03:53:49.042Z,0
2023-01-27T03:54:49.034Z,0
2023-01-27T03:55:49.022Z,0
2023-01-27T03:56:49.008Z,0
2023-01-27T03:57:49.032Z,0
2023-01-27T03:58:48.988Z,0
2023-01-27T03:59:48.977Z,0
2023-01-27T04:00:48.970Z,0
2023-01-27T04:01:48.959Z,0
2023-01-27T04:02:48.943Z,0
2023-01-27T04:03:48.938Z,0
2023-01-27T04:04:48.925Z,0
2023-01-27T04:05:48.919Z,0
2023-01-27T04:06:48.908Z,0
2023-01-27T04:07:48.893Z,0
2023-01-27T04:08:48.882Z,0
2023-01-27T04:09:48.873Z,0
2023-01-27T04:10:48.862Z,0
2023-01-27T04:11:48.850Z,0
2023-01-27T04:12:48.851Z,0
2023-01-27T04:13:48.831Z,0
2023-01-27T04:14:48.821Z,0
2023-01-27T04:15:48.811Z,0
2023-01-27T04:16:48.797Z,0
2023-01-27T04:17:48.786Z,0
2023-01-27T04:18:48.782Z,0
2023-01-27T04:19:48.781Z,0
2023-01-27T04:20:48.754Z,0
2023-01-27T04:21:48.748Z,0
2023-01-27T04:22:48.733Z,0
2023-01-27T04:23:48.722Z,0
2023-01-27T04:24:48.719Z,0
2023-01-27T04:25:48.707Z,0
2023-01-27T04:26:48.700Z,0
2023-01-27T04:27:48.681Z,0
2023-01-27T04:28:48.671Z,0
2023-01-27T04:29:48.660Z,0
2023-01-27T04:30:48.659Z,0
2023-01-27T04:31:48.635Z,0
2023-01-27T04:32:48.631Z,0
2023-01-27T04:33:48.624Z,0
2023-01-27T04:34:48.656Z,0
2023-01-27T04:35:48.598Z,0
2023-01-27T04:36:48.590Z,0
2023-01-27T04:37:48.582Z,0
2023-01-27T04:38:48.569Z,0
2023-01-27T04:39:48.561Z,0
2023-01-27T04:40:48.539Z,0
2023-01-27T04:41:48.535Z,0
2023-01-27T04:42:48.526Z,0
2023-01-27T04:43:48.506Z,0
2023-01-27T04:44:48.502Z,0
2023-01-27T04:45:48.503Z,0
2023-01-27T04:46:48.482Z,0
2023-01-27T04:47:48.466Z,0
2023-01-27T04:48:48.457Z,0
2023-01-27T04:49:48.448Z,0
2023-01-27T04:50:48.434Z,0
2023-01-27T04:51:48.424Z,0
2023-01-27T04:52:48.417Z,0
2023-01-27T04:53:48.411Z,0
2023-01-27T04:54:48.395Z,0
2023-01-27T04:55:48.405Z,0
2023-01-27T04:56:48.394Z,0
2023-01-27T04:57:48.373Z,0
2023-01-27T04:58:48.352Z,0
2023-01-27T04:59:48.345Z,0
2023-01-27T05:00:48.342Z,0
2023-01-27T05:01:48.320Z,0
2023-01-27T05:02:48.313Z,0
2023-01-27T05:03:48.295Z,0
2023-01-27T05:04:48.286Z,0
2023-01-27T05:05:48.282Z,0
2023-01-27T05:06:48.283Z,0
2023-01-27T05:07:48.253Z,0
2023-01-27T05:08:48.254Z,0
2023-01-27T05:09:48.236Z,0
2023-01-27T05:10:48.224Z,0
2023-01-27T05:11:48.211Z,0
2023-01-27T05:12:48.242Z,0
2023-01-27T05:13:48.190Z,0
2023-01-27T05:14:48.181Z,0
2023-01-27T05:15:48.165Z,0
2023-01-27T05:16:48.159Z,0
2023-01-27T05:17:48.166Z,0
2023-01-27T05:18:48.140Z,0
2023-01-27T05:19:48.127Z,0
2023-01-27T05:20:48.118Z,0
2023-01-27T05:21:48.110Z,0
2023-01-27T05:22:48.099Z,0
2023-01-27T05:23:48.087Z,0
2023-01-27T05:24:48.072Z,0
2023-01-27T05:25:48.061Z,0
2023-01-27T05:26:48.070Z,0
2023-01-27T05:27:48.038Z,0
2023-01-27T05:28:48.033Z,0
2023-01-27T05:29:48.021Z,0
2023-01-27T05:30:48.011Z,0
2023-01-27T05:31:48.009Z,0
2023-01-27T05:32:47.992Z,0
2023-01-27T05:33:47.977Z,0
2023-01-27T05:34:47.964Z,0
2023-01-27T05:35:47.978Z,0
2023-01-27T05:36:47.944Z,0
2023-01-27T05:37:47.942Z,0
2023-01-27T05:38:47.926Z,0
2023-01-27T05:39:47.929Z,0
2023-01-27T05:40:47.901Z,0
2023-01-27T05:41:47.889Z,0
2023-01-27T05:42:47.903Z,0
2023-01-27T05:43:47.876Z,0
2023-01-27T05:44:47.866Z,0
2023-01-27T05:45:47.853Z,0
2023-01-27T05:46:47.841Z,0
2023-01-27T05:47:47.858Z,0
2023-01-27T05:48:47.817Z,0
2023-01-27T05:49:47.809Z,0
2023-01-27T05:50:47.805Z,0
2023-01-27T05:51:47.785Z,0
2023-01-27T05:52:47.781Z,0
2023-01-27T05:53:47.773Z,0
2023-01-27T05:54:47.768Z,0
2023-01-27T05:55:47.747Z,0
2023-01-27T05:56:47.730Z,0
2023-01-27T05:57:47.734Z,0
2023-01-27T05:58:47.710Z,0
2023-01-27T05:59:47.717Z,0
2023-01-27T06:00:47.964Z,0
2023-01-27T06:01:48.676Z,0
2023-01-27T06:02:47.683Z,0
2023-01-27T06:03:47.677Z,0
2023-01-27T06:04:47.648Z,0
2023-01-27T06:05:47.641Z,0
2023-01-27T06:06:47.628Z,0
2023-01-27T06:07:47.617Z,0
2023-01-27T06:08:47.622Z,0
2023-01-27T06:09:47.596Z,0
2023-01-27T06:10:47.588Z,0
2023-01-27T06:11:47.596Z,0
2023-01-27T06:12:47.597Z,0
2023-01-27T06:13:47.547Z,0
2023-01-27T06:14:47.537Z,0
2023-01-27T06:15:47.555Z,0
2023-01-27T06:16:47.514Z,0
2023-01-27T06:17:47.547Z,0
2023-01-27T06:18:47.506Z,0
2023-01-27T06:19:47.490Z,0
2023-01-27T06:20:47.485Z,0
2023-01-27T06:21:47.461Z,0
2023-01-27T06:22:47.462Z,0
2023-01-27T06:23:47.457Z,0
2023-01-27T06:24:47.438Z,0
2023-01-27T06:25:47.421Z,0
2023-01-27T06:26:47.413Z,0
2023-01-27T06:27:47.400Z,0
2023-01-27T06:28:47.406Z,0
2023-01-27T06:29:47.382Z,0
2023-01-27T06:30:47.366Z,0
2023-01-27T06:31:47.393Z,0
2023-01-27T06:32:47.358Z,0
2023-01-27T06:33:47.334Z,0
2023-01-27T06:34:47.342Z,0
2023-01-27T06:35:47.322Z,0
2023-01-27T06:36:47.307Z,0
2023-01-27T06:37:47.297Z,0
2023-01-27T06:38:47.282Z,0
2023-01-27T06:39:47.269Z,0
2023-01-27T06:40:47.279Z,0
2023-01-27T06:41:47.250Z,0
2023-01-27T06:42:47.275Z,0
2023-01-27T06:43:47.242Z,0
2023-01-27T06:44:47.240Z,0
2023-01-27T06:45:47.244Z,0
2023-01-27T06:46:47.229Z,0
2023-01-27T06:47:47.196Z,0
2023-01-27T06:48:47.177Z,0
2023-01-27T06:49:47.193Z,0
2023-01-27T06:50:47.165Z,0
2023-01-27T06:51:47.146Z,0
2023-01-27T06:52:47.140Z,0
2023-01-27T06:53:47.127Z,0
2023-01-27T06:54:47.112Z,0
2023-01-27T06:55:47.113Z,0
2023-01-27T06:56:47.092Z,0
2023-01-27T06:57:47.081Z,0
2023-01-27T06:58:47.080Z,0
2023-01-27T06:59:47.066Z,0
2023-01-27T07:00:47.053Z,0
2023-01-27T07:01:47.041Z,0
2023-01-27T07:02:47.023Z,0
2023-01-27T07:03:47.022Z,0
2023-01-27T07:04:47.005Z,0
2023-01-27T07:05:46.997Z,0
2023-01-27T07:06:46.989Z,0
2023-01-27T07:07:46.977Z,0
2023-01-27T07:08:46.966Z,0
2023-01-27T07:09:46.955Z,0
2023-01-27T07:10:46.940Z,0
2023-01-27T07:11:46.945Z,0
2023-01-27T07:12:46.927Z,0
2023-01-27T07:13:46.916Z,0
2023-01-27T07:14:46.898Z,0
2023-01-27T07:15:47.121Z,0
2023-01-27T07:16:46.878Z,0
2023-01-27T07:17:46.868Z,0
2023-01-27T07:18:46.869Z,0
2023-01-27T07:19:46.865Z,0
2023-01-27T07:20:46.835Z,0
2023-01-27T07:21:46.855Z,0
2023-01-27T07:22:46.814Z,0
2023-01-27T07:23:46.805Z,0
2023-01-27T07:24:46.790Z,0
2023-01-27T07:25:46.795Z,0
2023-01-27T07:26:46.778Z,5.62
2023-01-27T07:27:46.811Z,5.62
2023-01-27T07:28:46.753Z,5.62
2023-01-27T07:29:46.749Z,5.62
2023-01-27T07:30:46.733Z,5.62
2023-01-27T07:31:46.724Z,5.62
2023-01-27T07:32:46.758Z,5.62
2023-01-27T07:33:46.698Z,5.62
2023-01-27T07:34:46.698Z,5.62
2023-01-27T07:35:46.693Z,5.62
2023-01-27T07:36:46.678Z,5.62
2023-01-27T07:37:46.656Z,5.62
2023-01-27T07:38:46.666Z,5.62
2023-01-27T07:39:46.635Z,5.62
2023-01-27T07:40:46.625Z,5.62
2023-01-27T07:41:46.626Z,5.62
2023-01-27T07:42:46.600Z,11.25
2023-01-27T07:43:46.593Z,5.62
2023-01-27T07:44:46.598Z,5.62
2023-01-27T07:45:46.585Z,5.62
2023-01-27T07:46:46.557Z,5.62
2023-01-27T07:47:46.578Z,5.62
2023-01-27T07:48:46.537Z,5.62
2023-01-27T07:49:46.524Z,11.25
2023-01-27T07:50:46.532Z,11.25
2023-01-27T07:51:46.506Z,11.25
2023-01-27T07:52:46.497Z,11.25
2023-01-27T07:53:46.493Z,11.25
2023-01-27T07:54:46.479Z,11.25
2023-01-27T07:55:46.472Z,11.25
2023-01-27T07:56:46.451Z,11.25
2023-01-27T07:57:46.439Z,11.25
2023-01-27T07:58:46.447Z,11.25
2023-01-27T07:59:46.437Z,11.25
2023-01-27T08:00:46.413Z,16.88
2023-01-27T08:01:46.398Z,11.25
2023-01-27T08:02:46.387Z,11.25
2023-01-27T08:03:46.380Z,11.25
2023-01-27T08:04:46.382Z,11.25
2023-01-27T08:05:46.357Z,11.25
2023-01-27T08:06:46.368Z,11.25
2023-01-27T08:07:46.336Z,11.25
2023-01-27T08:08:46.330Z,11.25
2023-01-27T08:09:46.318Z,11.25
2023-01-27T08:10:46.304Z,11.25
2023-01-27T08:11:46.296Z,16.88
2023-01-27T08:12:46.297Z,16.88
2023-01-27T08:13:46.373Z,11.25
2023-01-27T08:14:46.261Z,11.25
2023-01-27T08:15:46.254Z,11.25
2023-01-27T08:16:46.248Z,11.25
2023-01-27T08:17:46.243Z,11.25
2023-01-27T08:18:46.224Z,11.25
2023-01-27T08:19:46.210Z,11.25
2023-01-27T08:20:46.210Z,11.25
2023-01-27T08:21:46.190Z,11.25
2023-01-27T08:22:46.178Z,11.25
2023-01-27T08:23:46.170Z,11.25
2023-01-27T08:24:46.161Z,11.25
2023-01-27T08:25:46.149Z,11.25
2023-01-27T08:26:46.146Z,11.25
2023-01-27T08:27:46.129Z,11.25
2023-01-27T08:28:46.119Z,11.25
2023-01-27T08:29:46.109Z,11.25
2023-01-27T08:30:46.098Z,11.25
2023-01-27T08:31:46.106Z,11.25
2023-01-27T08:32:46.086Z,11.25
2023-01-27T08:33:46.087Z,11.25
2023-01-27T08:34:46.061Z,11.25
2023-01-27T08:35:46.041Z,11.25
2023-01-27T08:36:46.035Z,11.25
2023-01-27T08:37:46.028Z,11.25
2023-01-27T08:38:46.012Z,11.25
2023-01-27T08:39:46.024Z,11.25
2023-01-27T08:40:46.014Z,16.88
2023-01-27T08:41:45.978Z,16.88
2023-01-27T08:42:45.968Z,16.88
2023-01-27T08:43:45.967Z,16.88
2023-01-27T08:44:45.948Z,16.88
2023-01-27T08:45:45.935Z,16.88
2023-01-27T08:46:45.930Z,16.88
2023-01-27T08:47:45.930Z,16.88
2023-01-27T08:48:45.910Z,22.5
2023-01-27T08:49:45.911Z,22.5
2023-01-27T08:50:45.885Z,22.5
2023-01-27T08:51:45.889Z,22.5
2023-01-27T08:52:45.865Z,22.5
2023-01-27T08:53:45.861Z,22.5
2023-01-27T08:54:45.840Z,22.5
2023-01-27T08:55:45.831Z,22.5
2023-01-27T08:56:45.819Z,22.5
2023-01-27T08:57:45.813Z,22.5
2023-01-27T08:58:45.992Z,22.5
2023-01-27T08:59:45.789Z,28.12
2023-01-27T09:00:45.781Z,28.12
2023-01-27T09:01:45.769Z,28.12
2023-01-27T09:02:45.818Z,28.12
2023-01-27T09:03:46.747Z,28.12
2023-01-27T09:04:45.743Z,28.12
2023-01-27T09:05:45.730Z,28.12
2023-01-27T09:06:45.712Z,33.75
2023-01-27T09:07:45.717Z,33.75
2023-01-27T09:08:45.694Z,33.75
2023-01-27T09:09:45.690Z,39.38
2023-01-27T09:10:45.689Z,39.38
2023-01-27T09:11:45.665Z,39.38
2023-01-27T09:12:45.654Z,39.38
2023-01-27T09:13:45.641Z,39.38
2023-01-27T09:14:45.630Z,39.38
2023-01-27T09:15:45.628Z,33.75
2023-01-27T09:16:45.614Z,39.38
2023-01-27T09:17:45.602Z,39.38
2023-01-27T09:18:45.590Z,45
2023-01-27T09:19:45.582Z,45
2023-01-27T09:20:45.570Z,50.62
2023-01-27T09:21:45.565Z,56.25
2023-01-27T09:22:45.551Z,56.25
2023-01-27T09:23:45.538Z,61.88
2023-01-27T09:24:45.527Z,56.25
2023-01-27T09:25:45.520Z,56.25
2023-01-27T09:26:45.523Z,56.25
2023-01-27T09:27:45.500Z,50.62
2023-01-27T09:28:45.488Z,56.25
2023-01-27T09:29:45.481Z,56.25
2023-01-27T09:30:45.469Z,56.25
2023-01-27T09:31:45.459Z,45
2023-01-27T09:32:45.443Z,45
2023-01-27T09:33:45.436Z,45
2023-01-27T09:34:45.446Z,39.38
2023-01-27T09:35:45.416Z,45
2023-01-27T09:36:45.409Z,39.38
2023-01-27T09:37:45.819Z,33.75
2023-01-27T09:38:45.381Z,39.38
2023-01-27T09:39:45.374Z,33.75
2023-01-27T09:40:45.364Z,39.38
2023-01-27T09:41:45.357Z,39.38
2023-01-27T09:42:45.354Z,39.38
2023-01-27T09:43:45.336Z,39.38
2023-01-27T09:44:45.318Z,39.38
2023-01-27T09:45:45.318Z,33.75
2023-01-27T09:46:45.302Z,33.75
2023-01-27T09:47:45.285Z,39.38
2023-01-27T09:48:45.285Z,33.75
2023-01-27T09:49:45.309Z,33.75
2023-01-27T09:50:45.309Z,33.75
2023-01-27T09:51:45.269Z,28.12
2023-01-27T09:52:45.240Z,28.12
2023-01-27T09:53:45.228Z,28.12
2023-01-27T09:54:45.240Z,28.12
2023-01-27T09:55:45.248Z,28.12
2023-01-27T09:56:45.201Z,33.75
2023-01-27T09:57:45.190Z,28.12
2023-01-27T09:58:45.199Z,33.75
2023-01-27T09:59:45.192Z,33.75
2023-01-27T10:00:45.154Z,33.75
2023-01-27T10:01:45.147Z,33.75
2023-01-27T10:02:45.158Z,33.75
2023-01-27T10:03:45.126Z,33.75
2023-01-27T10:04:45.116Z,33.75
2023-01-27T10:05:45.125Z,33.75
2023-01-27T10:06:45.137Z,45
2023-01-27T10:07:45.092Z,45
2023-01-27T10:08:45.085Z,45
2023-01-27T10:09:45.082Z,45
2023-01-27T10:10:45.094Z,56.25
2023-01-27T10:11:45.040Z,73.12
2023-01-27T10:12:45.033Z,90
2023-01-27T10:13:45.043Z,90
2023-01-27T10:14:45.012Z,106.88
2023-01-27T10:15:45.007Z,95.62
2023-01-27T10:16:44.990Z,112.5
2023-01-27T10:17:44.986Z,84.38
2023-01-27T10:18:44.969Z,78.75
2023-01-27T10:19:44.977Z,78.75
2023-01-27T10:20:44.947Z,78.75
2023-01-27T10:21:44.936Z,95.62
2023-01-27T10:22:44.934Z,101.25
2023-01-27T10:23:44.969Z,90
2023-01-27T10:24:44.901Z,95.62
2023-01-27T10:25:44.933Z,101.25
2023-01-27T10:26:44.882Z,95.62
2023-01-27T10:27:44.883Z,95.62
2023-01-27T10:28:44.861Z,101.25
2023-01-27T10:29:44.851Z,78.75
2023-01-27T10:30:44.844Z,95.62
2023-01-27T10:31:44.841Z,84.38
2023-01-27T10:32:44.831Z,90
2023-01-27T10:33:44.815Z,78.75
2023-01-27T10:34:44.801Z,73.12
2023-01-27T10:35:44.798Z,84.38
2023-01-27T10:36:44.832Z,78.75
2023-01-27T10:37:44.771Z,90
2023-01-27T10:38:44.758Z,90
2023-01-27T10:39:44.747Z,78.75
2023-01-27T10:40:44.769Z,73.12
2023-01-27T10:41:44.730Z,90
2023-01-27T10:42:44.730Z,106.88
2023-01-27T10:43:44.722Z,118.12
2023-01-27T10:44:44.706Z,84.38
2023-01-27T10:45:44.691Z,84.38
2023-01-27T10:46:44.679Z,84.38
2023-01-27T10:47:44.669Z,84.38
2023-01-27T10:48:44.659Z,84.38
2023-01-27T10:49:44.691Z,84.38
2023-01-27T10:50:45.636Z,101.25
2023-01-27T10:51:44.627Z,95.62
2023-01-27T10:52:44.616Z,78.75
2023-01-27T10:53:44.631Z,101.25
2023-01-27T10:54:44.596Z,129.38
2023-01-27T10:55:44.589Z,112.5
2023-01-27T10:56:44.626Z,151.88
2023-01-27T10:57:44.564Z,163.12
2023-01-27T10:58:44.553Z,151.88
2023-01-27T10:59:44.540Z,129.38
2023-01-27T11:01:44.525Z,140.62
2023-01-27T11:02:44.521Z,140.62
2023-01-27T11:03:44.503Z,146.25
2023-01-27T11:04:44.490Z,129.38
2023-01-27T11:05:44.485Z,118.12
2023-01-27T11:06:44.496Z,129.38
2023-01-27T11:07:44.489Z,101.25
2023-01-27T11:08:44.529Z,106.88
2023-01-27T11:09:44.437Z,151.88
2023-01-27T11:10:44.452Z,168.75
2023-01-27T11:11:44.423Z,185.62
2023-01-27T11:12:44.415Z,151.88
2023-01-27T11:13:44.490Z,90
2023-01-27T11:14:44.384Z,84.38
2023-01-27T11:15:44.384Z,90
2023-01-27T11:16:44.484Z,106.88
2023-01-27T11:17:44.383Z,118.12
2023-01-27T11:18:44.423Z,78.75
2023-01-27T11:19:44.372Z,67.5
2023-01-27T11:20:44.376Z,67.5
2023-01-27T11:21:45.372Z,67.5
2023-01-27T11:22:45.383Z,61.88
2023-01-27T11:23:44.325Z,61.88
2023-01-27T11:24:44.455Z,61.88
2023-01-27T11:25:44.614Z,50.62
2023-01-27T11:26:44.322Z,45
2023-01-27T11:27:44.675Z,39.38
2023-01-27T11:28:44.715Z,39.38
2023-01-27T11:29:45.264Z,45
2023-01-27T11:30:44.436Z,50.62
2023-01-27T11:31:44.273Z,45
2023-01-27T11:32:44.431Z,45
2023-01-27T11:33:44.255Z,45
2023-01-27T11:34:44.500Z,45
2023-01-27T11:35:44.185Z,50.62
2023-01-27T11:36:44.274Z,45
2023-01-27T11:37:44.554Z,39.38
2023-01-27T11:38:44.610Z,39.38
2023-01-27T11:39:44.345Z,39.38
2023-01-27T11:40:45.309Z,39.38
2023-01-27T11:41:44.110Z,45
2023-01-27T11:42:44.112Z,39.38
2023-01-27T11:43:44.135Z,39.38
2023-01-27T11:44:44.095Z,45
2023-01-27T11:45:44.099Z,39.38
2023-01-27T11:46:45.090Z,39.38
2023-01-27T11:47:44.072Z,39.38
2023-01-27T11:48:44.059Z,56.25
2023-01-27T11:49:44.093Z,50.62
2023-01-27T11:50:44.201Z,39.38
2023-01-27T11:51:44.084Z,45
2023-01-27T11:52:44.060Z,45
2023-01-27T11:53:43.982Z,50.62
2023-01-27T11:54:44.118Z,50.62
2023-01-27T11:55:43.979Z,50.62
2023-01-27T11:56:44.010Z,67.5
2023-01-27T11:57:43.939Z,61.88
2023-01-27T11:58:43.935Z,67.5
2023-01-27T11:59:43.939Z,61.88
2023-01-27T12:00:43.928Z,56.25
2023-01-27T12:01:43.896Z,56.25
2023-01-27T12:02:43.923Z,73.12
2023-01-27T12:03:43.962Z,106.88
2023-01-27T12:04:43.930Z,90
2023-01-27T12:05:43.900Z,78.75
2023-01-27T12:06:43.852Z,95.62
2023-01-27T12:07:43.891Z,118.12
2023-01-27T12:08:43.885Z,112.5
2023-01-27T12:09:43.842Z,118.12
2023-01-27T12:10:43.831Z,101.25
2023-01-27T12:11:43.803Z,73.12
2023-01-27T12:12:43.793Z,73.12
2023-01-27T12:13:43.809Z,73.12
2023-01-27T12:14:43.805Z,61.88
2023-01-27T12:15:43.779Z,56.25
2023-01-27T12:16:43.872Z,50.62
2023-01-27T12:17:43.763Z,45
2023-01-27T12:18:43.756Z,45
2023-01-27T12:19:43.724Z,39.38
2023-01-27T12:20:43.757Z,33.75
2023-01-27T12:21:43.705Z,33.75
2023-01-27T12:22:43.705Z,28.12
2023-01-27T12:23:43.675Z,28.12
2023-01-27T12:24:43.687Z,28.12
2023-01-27T12:25:43.669Z,28.12
2023-01-27T12:26:43.654Z,28.12
2023-01-27T12:27:43.631Z,28.12
2023-01-27T12:28:43.619Z,28.12
2023-01-27T12:29:43.618Z,39.38
2023-01-27T12:30:43.617Z,39.38
2023-01-27T12:31:43.634Z,39.38
2023-01-27T12:32:43.578Z,39.38
2023-01-27T12:33:43.565Z,39.38
2023-01-27T12:34:43.556Z,39.38
2023-01-27T12:35:43.549Z,39.38
2023-01-27T12:36:43.581Z,39.38
2023-01-27T12:37:43.525Z,33.75
2023-01-27T12:38:43.520Z,45
2023-01-27T12:39:43.503Z,50.62
2023-01-27T12:40:43.495Z,50.62
2023-01-27T12:41:43.506Z,50.62
2023-01-27T12:42:43.484Z,50.62
2023-01-27T12:43:43.491Z,39.38
2023-01-27T12:44:43.512Z,39.38
2023-01-27T12:45:43.490Z,39.38
2023-01-27T12:46:43.439Z,39.38
2023-01-27T12:47:43.438Z,33.75
2023-01-27T12:48:43.432Z,28.12
2023-01-27T12:49:43.423Z,28.12
2023-01-27T12:50:43.393Z,28.12
2023-01-27T12:51:43.397Z,28.12
2023-01-27T12:52:43.376Z,28.12
2023-01-27T12:53:43.369Z,28.12
2023-01-27T12:54:43.392Z,28.12
2023-01-27T12:55:43.348Z,33.75
2023-01-27T12:56:43.336Z,33.75
2023-01-27T12:57:43.333Z,28.12
2023-01-27T12:58:43.388Z,28.12
2023-01-27T12:59:43.302Z,22.5
2023-01-27T13:00:43.358Z,22.5
2023-01-27T13:01:43.292Z,16.88
2023-01-27T13:02:43.266Z,22.5
2023-01-27T13:03:43.275Z,22.5
2023-01-27T13:04:43.340Z,28.12
2023-01-27T13:05:43.328Z,33.75
2023-01-27T13:06:43.243Z,39.38
2023-01-27T13:07:43.231Z,39.38
2023-01-27T13:08:43.269Z,33.75
2023-01-27T13:09:43.223Z,39.38
2023-01-27T13:10:43.273Z,45
2023-01-27T13:11:43.189Z,45
2023-01-27T13:12:43.185Z,39.38
2023-01-27T13:13:43.198Z,39.38
2023-01-27T13:14:43.143Z,39.38
2023-01-27T13:15:43.132Z,50.62
2023-01-27T13:16:43.199Z,45
2023-01-27T13:17:43.139Z,45
2023-01-27T13:18:43.122Z,45
2023-01-27T13:19:43.142Z,50.62
2023-01-27T13:20:43.087Z,45
2023-01-27T13:21:43.088Z,39.38
2023-01-27T13:22:43.078Z,39.38
2023-01-27T13:23:43.071Z,39.38
2023-01-27T13:24:43.186Z,39.38
2023-01-27T13:25:43.028Z,39.38
2023-01-27T13:26:43.018Z,39.38
2023-01-27T13:27:43.014Z,39.38
2023-01-27T13:28:43.002Z,33.75
2023-01-27T13:29:43.003Z,28.12
2023-01-27T13:30:42.994Z,22.5
2023-01-27T13:31:42.991Z,22.5
2023-01-27T13:32:42.993Z,22.5
2023-01-27T13:33:42.953Z,28.12
2023-01-27T13:34:42.962Z,33.75
2023-01-27T13:35:42.939Z,33.75
2023-01-27T13:36:42.923Z,39.38
2023-01-27T13:37:42.913Z,39.38
2023-01-27T13:38:42.911Z,33.75
2023-01-27T13:39:42.883Z,33.75
2023-01-27T13:40:42.892Z,28.12
2023-01-27T13:41:42.873Z,28.12
2023-01-27T13:42:42.868Z,28.12
2023-01-27T13:43:42.849Z,22.5
2023-01-27T13:44:42.848Z,22.5
2023-01-27T13:45:42.825Z,28.12
2023-01-27T13:46:42.818Z,22.5
2023-01-27T13:47:42.835Z,22.5
2023-01-27T13:48:42.810Z,22.5
2023-01-27T13:49:42.816Z,22.5
2023-01-27T13:50:42.808Z,22.5
2023-01-27T13:51:42.800Z,22.5
2023-01-27T13:52:42.977Z,22.5
2023-01-27T13:53:42.900Z,22.5
2023-01-27T13:54:43.806Z,22.5
2023-01-27T13:55:42.859Z,22.5